createdAt,value
2019-01-02T00:00:01.495Z,1008.72
2019-01-02T00:01:01.480Z,1008.69
2019-01-02T00:02:01.467Z,1008.72
2019-01-02T00:03:01.466Z,1008.73
2019-01-02T00:04:01.445Z,1008.71
2019-01-02T00:05:01.435Z,1008.67
2019-01-02T00:06:01.426Z,1008.65
2019-01-02T00:07:01.419Z,1008.66
2019-01-02T00:08:01.412Z,1008.64
2019-01-02T00:09:01.395Z,1008.63
2019-01-02T00:10:01.428Z,1008.56
2019-01-02T00:11:01.371Z,1008.63
2019-01-02T00:12:01.359Z,1008.71
2019-01-02T00:13:01.358Z,1008.65
2019-01-02T00:14:01.350Z,1008.75
2019-01-02T00:15:01.341Z,1008.72
2019-01-02T00:16:01.316Z,1008.72
2019-01-02T00:17:01.307Z,1008.69
2019-01-02T00:18:01.304Z,1008.74
2019-01-02T00:19:01.284Z,1008.71
2019-01-02T00:20:01.274Z,1008.72
2019-01-02T00:21:01.266Z,1008.70
2019-01-02T00:22:01.251Z,1008.75
2019-01-02T00:23:01.251Z,1008.75
2019-01-02T00:24:01.230Z,1008.84
2019-01-02T00:25:01.219Z,1008.93
2019-01-02T00:26:01.209Z,1008.80
2019-01-02T00:27:01.198Z,1008.88
2019-01-02T00:28:01.220Z,1008.78
2019-01-02T00:29:01.177Z,1008.81
2019-01-02T00:30:01.168Z,1008.87
2019-01-02T00:31:01.155Z,1008.82
2019-01-02T00:32:01.149Z,1008.84
2019-01-02T00:33:01.134Z,1008.88
2019-01-02T00:34:01.134Z,1008.84
2019-01-02T00:35:01.111Z,1008.86
2019-01-02T00:36:01.102Z,1008.90
2019-01-02T00:37:01.091Z,1008.90
2019-01-02T00:38:01.079Z,1008.96
2019-01-02T00:39:01.083Z,1008.89
2019-01-02T00:40:01.063Z,1008.87
2019-01-02T00:41:01.047Z,1008.89
2019-01-02T00:42:01.041Z,1008.91
2019-01-02T00:43:01.025Z,1008.93
2019-01-02T00:44:01.024Z,1008.98
2019-01-02T00:45:01.006Z,1009.01
2019-01-02T00:46:00.993Z,1008.94
2019-01-02T00:47:00.986Z,1008.92
2019-01-02T00:48:00.971Z,1008.87
2019-01-02T00:49:00.970Z,1008.94
2019-01-02T00:50:00.952Z,1008.89
2019-01-02T00:51:00.939Z,1008.88
2019-01-02T00:52:00.934Z,1008.88
2019-01-02T00:53:00.917Z,1008.98
2019-01-02T00:54:00.946Z,1008.94
2019-01-02T00:55:00.898Z,1009.05
2019-01-02T00:56:02.241Z,1009.03
2019-01-02T00:57:00.874Z,1009.05
2019-01-02T00:58:00.864Z,1008.99
2019-01-02T00:59:00.852Z,1009.01
2019-01-02T01:00:00.850Z,1009.04
2019-01-02T01:01:00.830Z,1009.06
2019-01-02T01:02:00.820Z,1009.11
2019-01-02T01:03:00.812Z,1009.09
2019-01-02T01:04:00.798Z,1009.11
2019-01-02T01:05:00.799Z,1009.12
2019-01-02T01:06:00.776Z,1009.10
2019-01-02T01:07:00.765Z,1009.07
2019-01-02T01:08:00.754Z,1009.07
2019-01-02T01:09:00.747Z,1009.01
2019-01-02T01:10:00.741Z,1009.12
2019-01-02T01:11:00.726Z,1009.06
2019-01-02T01:12:00.711Z,1009.06
2019-01-02T01:13:00.702Z,1009.15
2019-01-02T01:14:00.689Z,1009.16
2019-01-02T01:15:00.702Z,1009.13
2019-01-02T01:16:00.667Z,1009.12
2019-01-02T01:17:00.657Z,1009.14
2019-01-02T01:18:00.647Z,1009.16
2019-01-02T01:19:00.641Z,1009.21
2019-01-02T01:20:00.635Z,1009.20
2019-01-02T01:21:00.619Z,1009.16
2019-01-02T01:22:00.606Z,1009.15
2019-01-02T01:23:00.595Z,1009.26
2019-01-02T01:24:00.583Z,1009.16
2019-01-02T01:25:00.586Z,1009.16
2019-01-02T01:26:00.562Z,1009.22
2019-01-02T01:27:00.552Z,1009.21
2019-01-02T01:28:00.540Z,1009.24
2019-01-02T01:29:00.530Z,1009.28
2019-01-02T01:30:00.527Z,1009.21
2019-01-02T01:31:00.508Z,1009.24
2019-01-02T01:32:00.502Z,1009.16
2019-01-02T01:33:00.488Z,1009.19
2019-01-02T01:34:00.476Z,1009.23
2019-01-02T01:35:00.501Z,1009.31
2019-01-02T01:36:00.455Z,1009.28
2019-01-02T01:37:00.443Z,1009.31
2019-01-02T01:38:00.433Z,1009.35
2019-01-02T01:39:00.423Z,1009.26
2019-01-02T01:40:00.417Z,1009.26
2019-01-02T01:41:00.409Z,1009.29
2019-01-02T01:42:00.391Z,1009.33
2019-01-02T01:43:00.379Z,1009.33
2019-01-02T01:44:00.368Z,1009.33
2019-01-02T01:45:00.359Z,1009.35
2019-01-02T01:46:00.358Z,1009.33
2019-01-02T01:47:00.337Z,1009.32
2019-01-02T01:48:00.327Z,1009.33
2019-01-02T01:49:00.315Z,1009.36
2019-01-02T01:50:00.314Z,1009.37
2019-01-02T01:51:00.302Z,1009.48
2019-01-02T01:52:00.282Z,1009.49
2019-01-02T01:53:00.271Z,1009.53
2019-01-02T01:54:00.265Z,1009.44
2019-01-02T01:55:00.250Z,1009.51
2019-01-02T01:56:00.249Z,1009.45
2019-01-02T01:57:00.228Z,1009.36
2019-01-02T01:58:00.218Z,1009.47
2019-01-02T01:59:00.209Z,1009.38
2019-01-02T02:00:00.242Z,1009.40
2019-01-02T02:01:00.195Z,1009.39
2019-01-02T02:02:00.176Z,1009.40
2019-01-02T02:03:00.169Z,1009.36
2019-01-02T02:04:00.157Z,1009.56
2019-01-02T02:05:00.178Z,1009.49
2019-01-02T02:06:00.142Z,1009.39
2019-01-02T02:07:00.122Z,1009.40
2019-01-02T02:08:00.168Z,1009.39
2019-01-02T02:09:00.101Z,1009.42
2019-01-02T02:10:00.161Z,1009.41
2019-01-02T02:11:00.129Z,1009.45
2019-01-02T02:12:00.069Z,1009.47
2019-01-02T02:13:00.058Z,1009.43
2019-01-02T02:14:00.048Z,1009.45
2019-01-02T02:15:00.047Z,1009.43
2019-01-02T02:16:00.024Z,1009.46
2019-01-02T02:17:00.025Z,1009.44
2019-01-02T02:18:00.003Z,1009.42
2019-01-02T02:18:59.994Z,1009.42
2019-01-02T02:19:59.986Z,1009.50
2019-01-02T02:20:59.972Z,1009.49
2019-01-02T02:21:59.972Z,1009.57
2019-01-02T02:22:59.951Z,1009.62
2019-01-02T02:23:59.938Z,1009.56
2019-01-02T02:24:59.935Z,1009.54
2019-01-02T02:25:59.917Z,1009.57
2019-01-02T02:26:59.917Z,1009.57
2019-01-02T02:27:59.902Z,1009.59
2019-01-02T02:28:59.887Z,1009.72
2019-01-02T02:29:59.874Z,1009.61
2019-01-02T02:30:59.864Z,1009.68
2019-01-02T02:31:59.864Z,1009.63
2019-01-02T02:32:59.843Z,1009.65
2019-01-02T02:33:59.833Z,1009.72
2019-01-02T02:34:59.820Z,1009.68
2019-01-02T02:35:59.809Z,1009.76
2019-01-02T02:36:59.813Z,1009.65
2019-01-02T02:37:59.789Z,1009.76
2019-01-02T02:38:59.779Z,1009.69
2019-01-02T02:39:59.766Z,1009.74
2019-01-02T02:40:59.757Z,1009.75
2019-01-02T02:41:59.753Z,1009.77
2019-01-02T02:42:59.734Z,1009.77
2019-01-02T02:43:59.727Z,1009.72
2019-01-02T02:44:59.712Z,1009.73
2019-01-02T02:45:59.701Z,1009.75
2019-01-02T02:46:59.702Z,1009.73
2019-01-02T02:47:59.682Z,1009.77
2019-01-02T02:48:59.685Z,1009.81
2019-01-02T02:49:59.658Z,1009.74
2019-01-02T02:50:59.647Z,1009.84
2019-01-02T02:51:59.645Z,1009.79
2019-01-02T02:52:59.625Z,1009.79
2019-01-02T02:53:59.623Z,1009.78
2019-01-02T02:54:59.603Z,1009.72
2019-01-02T02:55:59.595Z,1009.74
2019-01-02T02:56:59.617Z,1009.81
2019-01-02T02:57:59.576Z,1009.78
2019-01-02T02:58:59.560Z,1009.82
2019-01-02T02:59:59.549Z,1009.80
2019-01-02T03:00:59.540Z,1009.88
2019-01-02T03:01:59.530Z,1009.87
2019-01-02T03:02:59.581Z,1009.77
2019-01-02T03:03:59.506Z,1009.79
2019-01-02T03:04:59.498Z,1009.72
2019-01-02T03:05:59.486Z,1009.79
2019-01-02T03:06:59.476Z,1009.82
2019-01-02T03:07:59.473Z,1009.85
2019-01-02T03:08:59.452Z,1009.91
2019-01-02T03:09:59.441Z,1009.90
2019-01-02T03:10:59.430Z,1009.95
2019-01-02T03:11:59.419Z,1010.01
2019-01-02T03:12:59.418Z,1010.06
2019-01-02T03:13:59.398Z,1010.16
2019-01-02T03:14:59.387Z,1010.14
2019-01-02T03:15:59.376Z,1010.01
2019-01-02T03:16:59.367Z,1010.02
2019-01-02T03:17:59.364Z,1009.99
2019-01-02T03:18:59.345Z,1010.02
2019-01-02T03:19:59.334Z,1009.88
2019-01-02T03:20:59.323Z,1009.90
2019-01-02T03:21:59.312Z,1010.05
2019-01-02T03:22:59.310Z,1009.95
2019-01-02T03:23:59.290Z,1010.07
2019-01-02T03:24:59.279Z,1010.05
2019-01-02T03:25:59.269Z,1010.03
2019-01-02T03:26:59.262Z,1010.08
2019-01-02T03:27:59.256Z,1010.11
2019-01-02T03:28:59.237Z,1010.14
2019-01-02T03:29:59.229Z,1010.07
2019-01-02T03:30:59.217Z,1010.20
2019-01-02T03:31:59.208Z,1010.17
2019-01-02T03:32:59.202Z,1010.09
2019-01-02T03:33:59.183Z,1010.06
2019-01-02T03:34:59.177Z,1010.06
2019-01-02T03:35:59.165Z,1010.02
2019-01-02T03:36:59.150Z,1010.11
2019-01-02T03:37:59.189Z,1010.02
2019-01-02T03:38:59.130Z,1010.12
2019-01-02T03:39:59.121Z,1010.22
2019-01-02T03:40:59.118Z,1010.19
2019-01-02T03:41:59.101Z,1010.09
2019-01-02T03:42:59.089Z,1010.04
2019-01-02T03:43:59.090Z,1010.10
2019-01-02T03:44:59.065Z,1010.06
2019-01-02T03:45:59.054Z,1010.08
2019-01-02T03:46:59.048Z,1010.02
2019-01-02T03:47:59.034Z,1009.98
2019-01-02T03:48:59.031Z,1009.96
2019-01-02T03:49:59.011Z,1009.97
2019-01-02T03:50:59.001Z,1009.97
2019-01-02T03:51:58.992Z,1009.89
2019-01-02T03:52:58.979Z,1010.00
2019-01-02T03:53:58.981Z,1010.04
2019-01-02T03:54:58.962Z,1010.03
2019-01-02T03:55:58.946Z,1010.01
2019-01-02T03:56:58.936Z,1010.06
2019-01-02T03:57:58.924Z,1010.20
2019-01-02T03:58:58.924Z,1010.19
2019-01-02T03:59:58.905Z,1010.22
2019-01-02T04:00:58.894Z,1010.21
2019-01-02T04:01:58.888Z,1010.21
2019-01-02T04:02:58.871Z,1010.25
2019-01-02T04:03:58.871Z,1010.22
2019-01-02T04:04:58.850Z,1010.26
2019-01-02T04:05:58.840Z,1010.24
2019-01-02T04:06:58.830Z,1010.32
2019-01-02T04:07:58.821Z,1010.27
2019-01-02T04:08:58.822Z,1010.33
2019-01-02T04:09:58.799Z,1010.26
2019-01-02T04:10:58.787Z,1010.25
2019-01-02T04:11:58.776Z,1010.41
2019-01-02T04:12:58.767Z,1010.35
2019-01-02T04:13:58.810Z,1010.38
2019-01-02T04:14:58.745Z,1010.48
2019-01-02T04:15:58.737Z,1010.40
2019-01-02T04:16:58.727Z,1010.66
2019-01-02T04:17:58.713Z,1010.43
2019-01-02T04:18:58.702Z,1010.51
2019-01-02T04:19:58.700Z,1010.72
2019-01-02T04:20:58.690Z,1010.73
2019-01-02T04:21:58.688Z,1010.65
2019-01-02T04:22:58.674Z,1010.64
2019-01-02T04:23:58.657Z,1010.68
2019-01-02T04:24:58.646Z,1010.75
2019-01-02T04:25:58.627Z,1010.76
2019-01-02T04:26:58.613Z,1010.79
2019-01-02T04:27:58.606Z,1010.78
2019-01-02T04:28:58.596Z,1010.88
2019-01-02T04:29:58.593Z,1010.93
2019-01-02T04:30:58.574Z,1010.98
2019-01-02T04:31:58.563Z,1011.03
2019-01-02T04:32:58.557Z,1011.07
2019-01-02T04:33:58.547Z,1011.07
2019-01-02T04:34:58.543Z,1011.09
2019-01-02T04:35:58.520Z,1011.10
2019-01-02T04:36:58.548Z,1011.07
2019-01-02T04:37:58.508Z,1011.05
2019-01-02T04:38:58.490Z,1011.12
2019-01-02T04:39:58.491Z,1011.14
2019-01-02T04:40:58.468Z,1011.16
2019-01-02T04:41:58.465Z,1011.06
2019-01-02T04:42:58.491Z,1011.07
2019-01-02T04:43:58.435Z,1011.12
2019-01-02T04:44:58.453Z,1011.20
2019-01-02T04:45:58.415Z,1011.17
2019-01-02T04:46:58.403Z,1011.15
2019-01-02T04:47:58.392Z,1011.14
2019-01-02T04:48:58.384Z,1011.21
2019-01-02T04:49:58.371Z,1011.23
2019-01-02T04:50:58.368Z,1011.16
2019-01-02T04:51:58.358Z,1011.17
2019-01-02T04:52:58.339Z,1011.18
2019-01-02T04:53:58.329Z,1011.18
2019-01-02T04:54:58.319Z,1011.17
2019-01-02T04:55:58.316Z,1011.23
2019-01-02T04:56:58.298Z,1011.16
2019-01-02T04:57:58.285Z,1011.27
2019-01-02T04:58:58.279Z,1011.28
2019-01-02T04:59:58.269Z,1011.15
2019-01-02T05:00:58.265Z,1011.19
2019-01-02T05:01:58.246Z,1011.31
2019-01-02T05:02:58.232Z,1011.31
2019-01-02T05:03:58.221Z,1011.22
2019-01-02T05:04:58.209Z,1011.48
2019-01-02T05:05:58.209Z,1011.42
2019-01-02T05:06:58.189Z,1011.35
2019-01-02T05:07:58.179Z,1011.45
2019-01-02T05:08:58.168Z,1011.46
2019-01-02T05:09:58.157Z,1011.52
2019-01-02T05:10:58.155Z,1011.42
2019-01-02T05:11:58.138Z,1011.43
2019-01-02T05:12:58.125Z,1011.43
2019-01-02T05:13:58.114Z,1011.55
2019-01-02T05:14:58.103Z,1011.59
2019-01-02T05:15:58.129Z,1011.51
2019-01-02T05:16:58.080Z,1011.61
2019-01-02T05:17:58.074Z,1011.54
2019-01-02T05:18:58.060Z,1011.63
2019-01-02T05:19:58.052Z,1011.67
2019-01-02T05:20:58.039Z,1011.65
2019-01-02T05:21:58.037Z,1011.55
2019-01-02T05:22:58.017Z,1011.74
2019-01-02T05:23:58.011Z,1011.76
2019-01-02T05:24:57.996Z,1011.79
2019-01-02T05:25:57.986Z,1011.82
2019-01-02T05:26:57.983Z,1011.84
2019-01-02T05:27:57.963Z,1011.88
2019-01-02T05:28:57.954Z,1011.88
2019-01-02T05:29:57.946Z,1011.93
2019-01-02T05:30:57.932Z,1011.96
2019-01-02T05:31:57.930Z,1011.98
2019-01-02T05:32:57.910Z,1011.94
2019-01-02T05:33:57.900Z,1012.00
2019-01-02T05:34:57.889Z,1012.04
2019-01-02T05:35:57.877Z,1011.94
2019-01-02T05:36:57.876Z,1012.02
2019-01-02T05:37:57.857Z,1011.99
2019-01-02T05:38:57.847Z,1012.00
2019-01-02T05:39:57.842Z,1012.01
2019-01-02T05:40:57.824Z,1011.97
2019-01-02T05:41:57.842Z,1011.99
2019-01-02T05:42:57.803Z,1012.03
2019-01-02T05:43:57.793Z,1012.03
2019-01-02T05:44:57.782Z,1011.98
2019-01-02T05:45:57.772Z,1012.03
2019-01-02T05:46:57.760Z,1012.09
2019-01-02T05:47:57.765Z,1012.14
2019-01-02T05:48:57.739Z,1012.20
2019-01-02T05:49:57.728Z,1012.20
2019-01-02T05:50:57.718Z,1012.18
2019-01-02T05:51:57.707Z,1012.17
2019-01-02T05:52:57.706Z,1012.13
2019-01-02T05:53:57.734Z,1012.20
2019-01-02T05:54:57.678Z,1012.20
2019-01-02T05:55:57.667Z,1012.22
2019-01-02T05:56:57.655Z,1012.24
2019-01-02T05:57:57.652Z,1012.25
2019-01-02T05:58:57.634Z,1012.27
2019-01-02T05:59:57.623Z,1012.24
2019-01-02T06:00:57.612Z,1012.35
2019-01-02T06:01:57.610Z,1012.36
2019-01-02T06:02:57.601Z,1012.45
2019-01-02T06:03:57.580Z,1012.44
2019-01-02T06:04:57.587Z,1012.48
2019-01-02T06:05:57.558Z,1012.51
2019-01-02T06:06:57.550Z,1012.45
2019-01-02T06:07:57.550Z,1012.52
2019-01-02T06:08:57.527Z,1012.49
2019-01-02T06:09:57.516Z,1012.55
2019-01-02T06:10:57.508Z,1012.48
2019-01-02T06:11:57.496Z,1012.52
2019-01-02T06:12:57.493Z,1012.53
2019-01-02T06:13:57.474Z,1012.59
2019-01-02T06:14:57.464Z,1012.63
2019-01-02T06:15:57.454Z,1012.63
2019-01-02T06:16:57.442Z,1012.62
2019-01-02T06:17:57.440Z,1012.65
2019-01-02T06:18:57.420Z,1012.64
2019-01-02T06:19:57.409Z,1012.68
2019-01-02T06:20:57.401Z,1012.68
2019-01-02T06:21:57.389Z,1012.82
2019-01-02T06:22:57.684Z,1012.75
2019-01-02T06:23:57.370Z,1012.80
2019-01-02T06:24:57.357Z,1012.82
2019-01-02T06:25:57.347Z,1012.71
2019-01-02T06:26:57.339Z,1012.91
2019-01-02T06:27:57.325Z,1012.92
2019-01-02T06:28:57.328Z,1012.85
2019-01-02T06:29:57.304Z,1012.91
2019-01-02T06:30:57.294Z,1012.90
2019-01-02T06:31:57.283Z,1012.93
2019-01-02T06:32:57.271Z,1012.94
2019-01-02T06:33:57.270Z,1012.95
2019-01-02T06:34:57.251Z,1012.97
2019-01-02T06:35:57.241Z,1013.02
2019-01-02T06:36:57.231Z,1013.04
2019-01-02T06:37:57.249Z,1013.02
2019-01-02T06:38:57.217Z,1013.13
2019-01-02T06:39:57.199Z,1013.12
2019-01-02T06:40:57.187Z,1013.14
2019-01-02T06:41:57.176Z,1013.22
2019-01-02T06:42:57.166Z,1013.29
2019-01-02T06:43:57.163Z,1013.34
2019-01-02T06:44:57.143Z,1013.30
2019-01-02T06:45:57.134Z,1013.27
2019-01-02T06:46:57.123Z,1013.39
2019-01-02T06:47:57.113Z,1013.34
2019-01-02T06:48:57.150Z,1013.35
2019-01-02T06:49:57.090Z,1013.34
2019-01-02T06:50:57.080Z,1013.38
2019-01-02T06:51:57.073Z,1013.38
2019-01-02T06:52:57.060Z,1013.40
2019-01-02T06:53:57.066Z,1013.38
2019-01-02T06:54:57.047Z,1013.42
2019-01-02T06:55:57.025Z,1013.49
2019-01-02T06:56:57.018Z,1013.41
2019-01-02T06:57:57.005Z,1013.53
2019-01-02T06:58:56.995Z,1013.57
2019-01-02T06:59:56.992Z,1013.52
2019-01-02T07:00:56.972Z,1013.52
2019-01-02T07:01:56.961Z,1013.62
2019-01-02T07:02:56.954Z,1013.49
2019-01-02T07:03:56.940Z,1013.50
2019-01-02T07:04:56.939Z,1013.68
2019-01-02T07:05:56.919Z,1013.74
2019-01-02T07:06:56.908Z,1013.64
2019-01-02T07:07:56.897Z,1013.72
2019-01-02T07:08:56.889Z,1013.79
2019-01-02T07:09:56.884Z,1013.90
2019-01-02T07:10:56.916Z,1013.81
2019-01-02T07:11:56.854Z,1013.97
2019-01-02T07:12:56.851Z,1013.99
2019-01-02T07:13:56.833Z,1013.95
2019-01-02T07:14:56.834Z,1013.96
2019-01-02T07:15:56.810Z,1014.02
2019-01-02T07:16:58.021Z,1014.03
2019-01-02T07:17:56.789Z,1014.00
2019-01-02T07:18:56.779Z,1014.07
2019-01-02T07:19:56.777Z,1014.08
2019-01-02T07:20:56.760Z,1014.10
2019-01-02T07:21:56.749Z,1014.21
2019-01-02T07:22:56.735Z,1014.19
2019-01-02T07:23:56.724Z,1014.21
2019-01-02T07:24:56.749Z,1014.25
2019-01-02T07:25:56.704Z,1014.25
2019-01-02T07:26:56.692Z,1014.33
2019-01-02T07:27:56.682Z,1014.27
2019-01-02T07:28:56.671Z,1014.40
2019-01-02T07:29:56.660Z,1014.39
2019-01-02T07:30:56.658Z,1014.48
2019-01-02T07:31:56.639Z,1014.58
2019-01-02T07:32:57.605Z,1014.60
2019-01-02T07:33:56.617Z,1014.62
2019-01-02T07:34:56.610Z,1014.71
2019-01-02T07:35:56.603Z,1014.64
2019-01-02T07:36:56.586Z,1014.60
2019-01-02T07:37:56.578Z,1014.61
2019-01-02T07:38:56.564Z,1014.68
2019-01-02T07:39:56.553Z,1014.59
2019-01-02T07:40:56.550Z,1014.62
2019-01-02T07:41:56.531Z,1014.61
2019-01-02T07:42:56.520Z,1014.60
2019-01-02T07:43:56.510Z,1014.56
2019-01-02T07:44:56.499Z,1014.58
2019-01-02T07:45:56.498Z,1014.51
2019-01-02T07:46:56.481Z,1014.50
2019-01-02T07:47:56.467Z,1014.50
2019-01-02T07:48:56.456Z,1014.50
2019-01-02T07:49:56.448Z,1014.55
2019-01-02T07:51:00.276Z,1014.56
2019-01-02T07:51:56.427Z,1014.53
2019-01-02T07:52:56.414Z,1014.56
2019-01-02T07:53:56.401Z,1014.54
2019-01-02T07:54:56.391Z,1014.59
2019-01-02T07:55:56.388Z,1014.67
2019-01-02T07:56:56.370Z,1014.71
2019-01-02T07:57:56.359Z,1014.70
2019-01-02T07:58:56.348Z,1014.69
2019-01-02T07:59:56.337Z,1014.76
2019-01-02T08:00:56.335Z,1014.75
2019-01-02T08:01:56.315Z,1014.83
2019-01-02T08:02:56.317Z,1014.79
2019-01-02T08:03:56.294Z,1014.78
2019-01-02T08:04:56.285Z,1014.91
2019-01-02T08:05:56.307Z,1014.94
2019-01-02T08:06:56.261Z,1015.06
2019-01-02T08:07:56.349Z,1015.01
2019-01-02T08:08:56.240Z,1014.94
2019-01-02T08:09:56.231Z,1015.05
2019-01-02T08:10:56.220Z,1015.06
2019-01-02T08:11:56.216Z,1015.07
2019-01-02T08:12:56.196Z,1015.18
2019-01-02T08:13:56.186Z,1015.18
2019-01-02T08:15:02.850Z,1015.16
2019-01-02T08:15:57.163Z,1015.08
2019-01-02T08:16:56.164Z,1015.26
2019-01-02T08:17:56.142Z,1015.31
2019-01-02T08:18:56.132Z,1015.47
2019-01-02T08:19:56.123Z,1015.44
2019-01-02T08:20:56.113Z,1015.40
2019-01-02T08:21:56.109Z,1015.39
2019-01-02T08:22:56.089Z,1015.46
2019-01-02T08:23:56.078Z,1015.55
2019-01-02T08:24:56.081Z,1015.53
2019-01-02T08:25:56.057Z,1015.58
2019-01-02T08:26:56.054Z,1015.64
2019-01-02T08:27:56.035Z,1015.65
2019-01-02T08:28:56.023Z,1015.74
2019-01-02T08:29:56.015Z,1015.76
2019-01-02T08:30:56.003Z,1015.80
2019-01-02T08:31:56.001Z,1015.81
2019-01-02T08:32:55.983Z,1015.82
2019-01-02T08:33:55.971Z,1015.91
2019-01-02T08:34:55.962Z,1015.95
2019-01-02T08:35:55.948Z,1015.97
2019-01-02T08:36:55.951Z,1015.96
2019-01-02T08:37:55.927Z,1016.00
2019-01-02T08:38:55.920Z,1016.08
2019-01-02T08:39:55.906Z,1016.04
2019-01-02T08:40:55.897Z,1016.08
2019-01-02T08:41:55.895Z,1016.17
2019-01-02T08:42:55.874Z,1016.28
2019-01-02T08:43:55.864Z,1016.27
2019-01-02T08:44:55.855Z,1016.30
2019-01-02T08:45:55.842Z,1016.36
2019-01-02T08:46:55.839Z,1016.43
2019-01-02T08:47:55.821Z,1016.52
2019-01-02T08:48:55.809Z,1016.41
2019-01-02T08:49:55.798Z,1016.52
2019-01-02T08:50:55.787Z,1016.56
2019-01-02T08:51:55.785Z,1016.52
2019-01-02T08:52:55.765Z,1016.54
2019-01-02T08:53:55.757Z,1016.53
2019-01-02T08:54:55.744Z,1016.53
2019-01-02T08:55:55.736Z,1016.57
2019-01-02T08:56:55.722Z,1016.56
2019-01-02T08:57:55.726Z,1016.73
2019-01-02T08:58:55.703Z,1016.69
2019-01-02T08:59:55.689Z,1016.63
2019-01-02T09:00:55.678Z,1016.76
2019-01-02T09:01:55.669Z,1016.70
2019-01-02T09:02:55.666Z,1016.77
2019-01-02T09:03:55.648Z,1016.71
2019-01-02T09:04:55.639Z,1016.74
2019-01-02T09:05:55.627Z,1016.79
2019-01-02T09:06:55.615Z,1016.76
2019-01-02T09:07:55.618Z,1016.71
2019-01-02T09:08:55.593Z,1016.68
2019-01-02T09:09:55.589Z,1016.70
2019-01-02T09:10:55.573Z,1016.78
2019-01-02T09:11:55.564Z,1016.78
2019-01-02T09:12:55.559Z,1016.77
2019-01-02T09:13:55.544Z,1016.77
2019-01-02T09:14:55.530Z,1016.74
2019-01-02T09:15:55.521Z,1016.79
2019-01-02T09:16:55.510Z,1016.87
2019-01-02T09:17:55.513Z,1016.82
2019-01-02T09:18:55.490Z,1016.90
2019-01-02T09:19:55.486Z,1016.97
2019-01-02T09:20:55.467Z,1016.98
2019-01-02T09:21:55.455Z,1016.91
2019-01-02T09:22:55.455Z,1016.94
2019-01-02T09:23:55.439Z,1017.03
2019-01-02T09:24:55.428Z,1016.87
2019-01-02T09:25:55.414Z,1017.02
2019-01-02T09:26:55.402Z,1017.07
2019-01-02T09:27:55.403Z,1017.07
2019-01-02T09:28:55.387Z,1017.12
2019-01-02T09:29:55.375Z,1017.14
2019-01-02T09:30:55.360Z,1017.17
2019-01-02T09:31:55.351Z,1017.18
2019-01-02T09:32:55.348Z,1017.20
2019-01-02T09:33:55.329Z,1017.20
2019-01-02T09:34:55.323Z,1017.30
2019-01-02T09:35:55.367Z,1017.36
2019-01-02T09:36:55.299Z,1017.29
2019-01-02T09:37:55.298Z,1017.34
2019-01-02T09:38:55.277Z,1017.30
2019-01-02T09:39:55.269Z,1017.29
2019-01-02T09:40:55.258Z,1017.41
2019-01-02T09:41:55.250Z,1017.33
2019-01-02T09:42:55.277Z,1017.42
2019-01-02T09:43:55.224Z,1017.39
2019-01-02T09:44:55.213Z,1017.37
2019-01-02T09:45:55.205Z,1017.37
2019-01-02T09:46:55.191Z,1017.39
2019-01-02T09:47:55.244Z,1017.40
2019-01-02T09:48:55.178Z,1017.42
2019-01-02T09:49:55.159Z,1017.46
2019-01-02T09:50:55.151Z,1017.51
2019-01-02T09:51:55.142Z,1017.59
2019-01-02T09:52:55.129Z,1017.55
2019-01-02T09:53:55.126Z,1017.59
2019-01-02T09:55:01.216Z,1017.56
2019-01-02T09:55:56.098Z,1017.62
2019-01-02T09:56:55.084Z,1017.61
2019-01-02T09:57:55.075Z,1017.63
2019-01-02T09:58:55.072Z,1017.61
2019-01-02T09:59:55.057Z,1017.62
2019-01-02T10:00:55.046Z,1017.67
2019-01-02T10:01:55.031Z,1017.71
2019-01-02T10:02:55.020Z,1017.72
2019-01-02T10:03:55.056Z,1017.71
2019-01-02T10:04:55.004Z,1017.73
2019-01-02T10:05:54.988Z,1017.77
2019-01-02T10:06:54.983Z,1017.75
2019-01-02T10:07:54.967Z,1017.69
2019-01-02T10:08:54.959Z,1017.74
2019-01-02T10:09:54.962Z,1017.70
2019-01-02T10:10:54.943Z,1017.73
2019-01-02T10:11:54.925Z,1017.76
2019-01-02T10:12:54.914Z,1017.73
2019-01-02T10:13:54.904Z,1017.79
2019-01-02T10:14:54.905Z,1017.70
2019-01-02T10:15:54.882Z,1017.74
2019-01-02T10:16:54.882Z,1017.70
2019-01-02T10:17:54.862Z,1017.77
2019-01-02T10:18:54.851Z,1017.78
2019-01-02T10:19:54.849Z,1017.78
2019-01-02T10:20:54.828Z,1017.80
2019-01-02T10:21:54.820Z,1017.83
2019-01-02T10:22:54.807Z,1017.86
2019-01-02T10:23:54.797Z,1017.87
2019-01-02T10:24:54.795Z,1017.87
2019-01-02T10:25:54.776Z,1017.93
2019-01-02T10:26:54.766Z,1017.87
2019-01-02T10:27:54.758Z,1017.95
2019-01-02T10:28:54.744Z,1017.94
2019-01-02T10:29:54.744Z,1017.92
2019-01-02T10:30:54.723Z,1017.98
2019-01-02T10:31:54.713Z,1018.01
2019-01-02T10:32:54.699Z,1018.00
2019-01-02T10:33:54.688Z,1018.01
2019-01-02T10:34:54.688Z,1018.06
2019-01-02T10:35:54.673Z,1018.06
2019-01-02T10:36:54.661Z,1018.07
2019-01-02T10:37:54.651Z,1018.06
2019-01-02T10:38:54.635Z,1018.09
2019-01-02T10:39:54.637Z,1018.17
2019-01-02T10:40:54.614Z,1018.18
2019-01-02T10:41:54.604Z,1018.13
2019-01-02T10:42:54.594Z,1018.19
2019-01-02T10:43:54.582Z,1018.22
2019-01-02T10:44:54.608Z,1018.17
2019-01-02T10:45:54.560Z,1018.25
2019-01-02T10:46:54.551Z,1018.20
2019-01-02T10:47:54.540Z,1018.27
2019-01-02T10:48:54.547Z,1018.24
2019-01-02T10:49:54.520Z,1018.27
2019-01-02T10:50:54.518Z,1018.29
2019-01-02T10:51:54.496Z,1018.23
2019-01-02T10:52:54.485Z,1018.24
2019-01-02T10:53:54.477Z,1018.26
2019-01-02T10:54:54.464Z,1018.28
2019-01-02T10:55:54.461Z,1018.31
2019-01-02T10:56:54.441Z,1018.42
2019-01-02T10:57:54.432Z,1018.30
2019-01-02T10:58:54.432Z,1018.43
2019-01-02T10:59:54.409Z,1018.41
2019-01-02T11:00:54.425Z,1018.37
2019-01-02T11:01:54.389Z,1018.35
2019-01-02T11:02:54.383Z,1018.32
2019-01-02T11:03:54.373Z,1018.34
2019-01-02T11:04:54.362Z,1018.37
2019-01-02T11:05:54.344Z,1018.41
2019-01-02T11:06:54.356Z,1018.37
2019-01-02T11:07:54.322Z,1018.40
2019-01-02T11:08:54.327Z,1018.43
2019-01-02T11:09:54.301Z,1018.43
2019-01-02T11:10:54.290Z,1018.40
2019-01-02T11:11:54.288Z,1018.45
2019-01-02T11:12:54.279Z,1018.44
2019-01-02T11:13:54.257Z,1018.42
2019-01-02T11:14:54.248Z,1018.54
2019-01-02T11:15:54.257Z,1018.44
2019-01-02T11:16:54.238Z,1018.51
2019-01-02T11:17:54.215Z,1018.44
2019-01-02T11:18:54.204Z,1018.52
2019-01-02T11:19:54.195Z,1018.45
2019-01-02T11:20:54.195Z,1018.48
2019-01-02T11:21:54.188Z,1018.51
2019-01-02T11:22:54.161Z,1018.54
2019-01-02T11:23:54.149Z,1018.52
2019-01-02T11:24:54.138Z,1018.51
2019-01-02T11:25:54.132Z,1018.58
2019-01-02T11:26:54.129Z,1018.54
2019-01-02T11:27:54.109Z,1018.53
2019-01-02T11:28:54.097Z,1018.57
2019-01-02T11:29:54.086Z,1018.57
2019-01-02T11:30:54.075Z,1018.57
2019-01-02T11:31:54.074Z,1018.55
2019-01-02T11:32:54.054Z,1018.65
2019-01-02T11:33:54.047Z,1018.67
2019-01-02T11:34:54.031Z,1018.62
2019-01-02T11:35:54.021Z,1018.58
2019-01-02T11:36:54.093Z,1018.81
2019-01-02T11:37:54.030Z,1018.72
2019-01-02T11:38:54.006Z,1018.74
2019-01-02T11:39:53.979Z,1018.74
2019-01-02T11:40:53.967Z,1018.70
2019-01-02T11:41:53.967Z,1018.74
2019-01-02T11:42:53.948Z,1018.67
2019-01-02T11:43:53.943Z,1018.60
2019-01-02T11:44:53.925Z,1018.73
2019-01-02T11:45:53.916Z,1018.87
2019-01-02T11:46:53.912Z,1018.81
2019-01-02T11:47:53.892Z,1018.81
2019-01-02T11:48:53.890Z,1018.91
2019-01-02T11:49:53.873Z,1018.80
2019-01-02T11:50:53.861Z,1018.88
2019-01-02T11:51:53.886Z,1018.87
2019-01-02T11:52:53.839Z,1018.98
2019-01-02T11:53:53.833Z,1018.91
2019-01-02T11:54:53.819Z,1018.95
2019-01-02T11:55:53.809Z,1018.91
2019-01-02T11:56:53.801Z,1018.94
2019-01-02T11:57:53.795Z,1019.00
2019-01-02T11:58:53.775Z,1019.03
2019-01-02T11:59:53.766Z,1019.00
2019-01-02T12:00:53.755Z,1018.99
2019-01-02T12:01:53.744Z,1019.02
2019-01-02T12:02:53.740Z,1019.07
2019-01-02T12:03:53.725Z,1019.06
2019-01-02T12:04:53.712Z,1019.03